Time;durP1;ratioP1;P1;durP2;ratioP2;P2;SDS_P1;SDS_P2;PMS_P1;PMS_P2;Temp;Humidity;BMP_temperature;BMP_pressure;BME280_temperature;BME280_humidity;BME280_pressure;Samples;Min_cycle;Max_cycle;Signal;HPM_P1;HPM_P2
2023/03/12 00:02:09;;;;;;;8.30;4.53;;;;;;;;;;4988363;28;20183;-74
2023/03/12 00:04:35;;;;;;;7.63;4.27;;;;;;;;;;4986018;28;20727;-75
2023/03/12 00:07:00;;;;;;;6.63;4.03;;;;;;;;;;4993419;28;20183;-75
2023/03/12 00:09:25;;;;;;;6.50;4.37;;;;;;;;;;4983905;28;20283;-75
2023/03/12 00:11:51;;;;;;;5.33;4.30;;;;;;;;;;4992318;28;20275;-74
2023/03/12 00:14:16;;;;;;;8.23;5.07;;;;;;;;;;4986733;28;20209;-74
2023/03/12 00:16:41;;;;;;;11.40;5.33;;;;;;;;;;4984863;28;20196;-74
2023/03/12 00:19:06;;;;;;;8.60;5.23;;;;;;;;;;4991837;28;20585;-74
2023/03/12 00:21:32;;;;;;;7.30;4.80;;;;;;;;;;4995259;28;20198;-75
2023/03/12 00:23:57;;;;;;;5.77;4.50;;;;;;;;;;4994802;28;20219;-74
2023/03/12 00:26:22;;;;;;;8.53;4.53;;;;;;;;;;4986647;28;20183;-75
2023/03/12 00:28:48;;;;;;;6.53;4.80;;;;;;;;;;4986596;28;20180;-75
2023/03/12 00:31:21;;;;;;;5.93;4.30;;;;;;;;;;4990487;28;20187;-75
2023/03/12 00:33:48;;;;;;;6.60;4.73;;;;;;;;;;4992085;28;20207;-75
2023/03/12 00:36:14;;;;;;;7.13;5.07;;;;;;;;;;4989610;28;20191;-75
2023/03/12 00:38:39;;;;;;;6.20;4.60;;;;;;;;;;4991450;28;20171;-74
2023/03/12 00:41:04;;;;;;;9.30;4.70;;;;;;;;;;4993049;28;20191;-73
2023/03/12 00:43:29;;;;;;;4.83;4.27;;;;;;;;;;4989491;28;20216;-76
2023/03/12 00:45:55;;;;;;;5.10;3.97;;;;;;;;;;4989826;28;20183;-73
2023/03/12 00:48:20;;;;;;;5.57;3.90;;;;;;;;;;4989319;28;20646;-75
2023/03/12 00:50:45;;;;;;;6.10;4.03;;;;;;;;;;4982201;28;20180;-75
2023/03/12 00:53:10;;;;;;;8.20;4.77;;;;;;;;;;4983821;28;20511;-75
2023/03/12 00:55:35;;;;;;;6.20;4.17;;;;;;;;;;4992315;28;20238;-75
2023/03/12 00:58:01;;;;;;;6.93;4.10;;;;;;;;;;4995152;28;20204;-73
2023/03/12 01:00:26;;;;;;;8.37;4.23;;;;;;;;;;4987347;28;20237;-75
2023/03/12 01:02:51;;;;;;;6.93;4.67;;;;;;;;;;4985553;28;20231;-75
2023/03/12 01:05:16;;;;;;;10.70;4.20;;;;;;;;;;4984879;28;20203;-75
2023/03/12 01:07:42;;;;;;;7.03;4.07;;;;;;;;;;5000918;28;20233;-75
2023/03/12 01:10:07;;;;;;;7.73;3.87;;;;;;;;;;4992272;28;20187;-75
2023/03/12 01:12:33;;;;;;;7.53;3.63;;;;;;;;;;4991668;28;20194;-75
2023/03/12 01:14:58;;;;;;;7.43;3.97;;;;;;;;;;5000613;28;20291;-75
2023/03/12 01:17:23;;;;;;;6.47;4.10;;;;;;;;;;4982747;28;20246;-75
2023/03/12 01:19:48;;;;;;;8.00;5.20;;;;;;;;;;4990999;28;20176;-75
2023/03/12 01:22:14;;;;;;;9.03;4.70;;;;;;;;;;4995183;28;20179;-74
2023/03/12 01:24:39;;;;;;;15.50;5.47;;;;;;;;;;4995808;28;20565;-75
2023/03/12 01:27:04;;;;;;;5.27;4.20;;;;;;;;;;4994296;28;20633;-75
2023/03/12 01:29:29;;;;;;;6.67;5.03;;;;;;;;;;4988435;28;20171;-75
2023/03/12 01:31:54;;;;;;;6.70;4.00;;;;;;;;;;4984313;28;20772;-75
2023/03/12 01:34:20;;;;;;;7.90;4.23;;;;;;;;;;4993540;28;20266;-74
2023/03/12 01:36:46;;;;;;;7.67;4.10;;;;;;;;;;4989051;28;20219;-75
2023/03/12 01:39:12;;;;;;;5.70;3.77;;;;;;;;;;4975126;28;20584;-75
2023/03/12 01:41:37;;;;;;;5.73;4.00;;;;;;;;;;4984096;28;20191;-75
2023/03/12 01:44:03;;;;;;;7.67;4.13;;;;;;;;;;4970435;28;20220;-75
2023/03/12 01:46:37;;;;;;;7.13;4.10;;;;;;;;;;4983312;28;20233;-76
2023/03/12 01:49:05;;;;;;;6.40;4.03;;;;;;;;;;4967918;28;20172;-74
2023/03/12 01:51:39;;;;;;;8.57;4.33;;;;;;;;;;4977876;28;20183;-74
2023/03/12 01:54:07;;;;;;;5.93;3.93;;;;;;;;;;4971803;28;20306;-74
2023/03/12 01:56:33;;;;;;;8.87;4.10;;;;;;;;;;4985433;28;20726;-73
2023/03/12 01:59:01;;;;;;;7.43;3.97;;;;;;;;;;4969364;28;20584;-74
2023/03/12 02:01:26;;;;;;;5.93;3.90;;;;;;;;;;4967081;28;20253;-74
2023/03/12 02:03:52;;;;;;;9.53;4.30;;;;;;;;;;4962450;28;20341;-74
2023/03/12 02:06:22;;;;;;;5.63;4.10;;;;;;;;;;4979200;28;20725;-74
2023/03/12 02:08:47;;;;;;;6.57;4.20;;;;;;;;;;4981528;28;20218;-74
2023/03/12 02:11:13;;;;;;;6.10;4.13;;;;;;;;;;4986641;28;20646;-73
2023/03/12 02:13:38;;;;;;;7.43;3.93;;;;;;;;;;4982668;28;20184;-76
2023/03/12 02:16:04;;;;;;;7.70;4.30;;;;;;;;;;4981292;28;20172;-73
2023/03/12 02:18:29;;;;;;;6.87;4.03;;;;;;;;;;4979961;28;20662;-73
2023/03/12 02:21:00;;;;;;;7.90;4.13;;;;;;;;;;4984962;28;20235;-74
2023/03/12 02:23:25;;;;;;;5.83;3.67;;;;;;;;;;4990326;28;20693;-73
2023/03/12 02:25:51;;;;;;;4.20;3.67;;;;;;;;;;4992286;28;20231;-73
2023/03/12 02:28:18;;;;;;;5.33;4.00;;;;;;;;;;4991801;28;20553;-73
2023/03/12 02:30:45;;;;;;;6.50;3.73;;;;;;;;;;4991394;28;20180;-73
2023/03/12 02:33:11;;;;;;;6.93;4.40;;;;;;;;;;4992236;28;20596;-73
2023/03/12 02:35:37;;;;;;;8.03;3.30;;;;;;;;;;4991869;28;20214;-73
2023/03/12 02:38:22;;;;;;;7.90;3.80;;;;;;;;;;4991734;28;20190;-73
2023/03/12 02:40:47;;;;;;;4.73;3.37;;;;;;;;;;4991536;28;20322;-73
2023/03/12 02:43:13;;;;;;;7.60;3.43;;;;;;;;;;4990422;28;20310;-74
2023/03/12 02:45:38;;;;;;;7.30;3.63;;;;;;;;;;4990707;28;20542;-73
2023/03/12 02:48:05;;;;;;;6.70;3.43;;;;;;;;;;4992737;28;20270;-73
2023/03/12 02:50:31;;;;;;;4.07;2.97;;;;;;;;;;4987557;28;20226;-73
2023/03/12 02:52:56;;;;;;;5.73;3.60;;;;;;;;;;4982276;28;20578;-73
2023/03/12 02:55:21;;;;;;;5.73;3.47;;;;;;;;;;4978732;28;20298;-73
2023/03/12 02:57:46;;;;;;;5.17;3.37;;;;;;;;;;4983874;28;20184;-73
2023/03/12 03:00:14;;;;;;;6.67;3.10;;;;;;;;;;4980987;28;20180;-73
2023/03/12 03:02:39;;;;;;;5.63;3.00;;;;;;;;;;4983923;28;20184;-73
2023/03/12 03:05:05;;;;;;;6.77;4.30;;;;;;;;;;4971564;28;20199;-73
2023/03/12 03:07:30;;;;;;;5.70;3.37;;;;;;;;;;4987362;28;20210;-73
2023/03/12 03:09:55;;;;;;;10.87;4.00;;;;;;;;;;4982597;28;20172;-73
2023/03/12 03:12:21;;;;;;;8.73;4.00;;;;;;;;;;4982869;28;20661;-73
2023/03/12 03:14:47;;;;;;;5.73;4.03;;;;;;;;;;4985319;28;20226;-73
2023/03/12 03:17:12;;;;;;;5.20;3.33;;;;;;;;;;4982983;28;20199;-73
2023/03/12 03:19:37;;;;;;;4.23;2.77;;;;;;;;;;4985539;28;20180;-74
2023/03/12 03:22:02;;;;;;;6.57;3.97;;;;;;;;;;4988157;28;20192;-73
2023/03/12 03:24:28;;;;;;;6.23;3.33;;;;;;;;;;4992327;28;20250;-73
2023/03/12 03:26:53;;;;;;;5.23;4.20;;;;;;;;;;4992836;28;20705;-74
2023/03/12 03:29:18;;;;;;;5.33;3.33;;;;;;;;;;4991450;28;20172;-73
2023/03/12 03:31:43;;;;;;;4.73;3.40;;;;;;;;;;4983882;28;20164;-73
2023/03/12 03:34:09;;;;;;;4.73;3.20;;;;;;;;;;4995615;28;20198;-73
2023/03/12 03:36:34;;;;;;;7.73;3.90;;;;;;;;;;4989511;28;20171;-74
2023/03/12 03:38:59;;;;;;;4.23;3.40;;;;;;;;;;4995119;28;20188;-74
2023/03/12 03:41:25;;;;;;;3.53;3.23;;;;;;;;;;4995646;28;20190;-73
2023/03/12 03:43:50;;;;;;;6.97;3.43;;;;;;;;;;4994827;28;20227;-73
2023/03/12 03:46:15;;;;;;;5.40;3.80;;;;;;;;;;4995505;28;20653;-75
2023/03/12 03:48:40;;;;;;;8.53;3.90;;;;;;;;;;4988150;28;20172;-75
2023/03/12 03:51:06;;;;;;;4.33;3.17;;;;;;;;;;4994308;28;20191;-74
2023/03/12 03:53:31;;;;;;;5.17;2.70;;;;;;;;;;4984435;28;20193;-74
2023/03/12 03:55:57;;;;;;;6.17;3.50;;;;;;;;;;4982790;28;20196;-74
2023/03/12 03:58:22;;;;;;;6.57;3.87;;;;;;;;;;4985339;28;20558;-74
2023/03/12 04:00:47;;;;;;;4.13;2.80;;;;;;;;;;4990164;28;20176;-74
2023/03/12 04:03:13;;;;;;;6.10;3.10;;;;;;;;;;5009018;28;20262;-74
2023/03/12 04:05:38;;;;;;;5.10;3.20;;;;;;;;;;4977419;28;20199;-74
2023/03/12 04:08:04;;;;;;;6.67;3.30;;;;;;;;;;4984333;28;20271;-74
2023/03/12 04:10:29;;;;;;;4.33;3.03;;;;;;;;;;4999528;28;20199;-74
2023/03/12 04:12:54;;;;;;;4.83;3.37;;;;;;;;;;4996942;28;20184;-74
2023/03/12 04:15:19;;;;;;;9.73;4.00;;;;;;;;;;4987527;28;20203;-74
2023/03/12 04:17:45;;;;;;;6.37;3.83;;;;;;;;;;4985963;28;20199;-74
2023/03/12 04:20:10;;;;;;;5.93;3.67;;;;;;;;;;4989579;28;20184;-74
2023/03/12 04:22:35;;;;;;;6.57;3.50;;;;;;;;;;4987171;28;20183;-74
2023/03/12 04:25:01;;;;;;;5.03;3.43;;;;;;;;;;4993682;28;20219;-74
2023/03/12 04:27:26;;;;;;;8.43;3.77;;;;;;;;;;4994459;28;20453;-75
2023/03/12 04:29:51;;;;;;;6.40;3.50;;;;;;;;;;4994238;28;20282;-75
2023/03/12 04:32:16;;;;;;;6.30;4.20;;;;;;;;;;4994884;28;20181;-74
2023/03/12 04:34:42;;;;;;;4.97;3.87;;;;;;;;;;4996021;28;20303;-74
2023/03/12 04:37:10;;;;;;;6.23;4.10;;;;;;;;;;4996571;28;20258;-74
2023/03/12 04:39:35;;;;;;;9.40;4.00;;;;;;;;;;4974930;28;20185;-75
2023/03/12 04:42:00;;;;;;;9.87;3.80;;;;;;;;;;4989753;28;20689;-74
2023/03/12 04:44:25;;;;;;;7.77;4.40;;;;;;;;;;4993596;28;20234;-74
2023/03/12 04:46:51;;;;;;;7.73;4.13;;;;;;;;;;4989908;28;20552;-74
2023/03/12 04:49:16;;;;;;;5.90;4.53;;;;;;;;;;4994739;28;20535;-75
2023/03/12 04:51:41;;;;;;;8.90;5.03;;;;;;;;;;4991062;28;20199;-74
2023/03/12 04:54:06;;;;;;;6.00;3.87;;;;;;;;;;5000593;23;20535;-69
2023/03/12 04:56:32;;;;;;;5.70;4.30;;;;;;;;;;4992489;28;20270;-69
2023/03/12 04:58:57;;;;;;;7.23;3.70;;;;;;;;;;4996538;28;20179;-70
2023/03/12 05:01:29;;;;;;;13.43;4.37;;;;;;;;;;4992922;28;20256;-68
2023/03/12 05:03:54;;;;;;;4.80;4.30;;;;;;;;;;4991233;28;20207;-68
2023/03/12 05:06:20;;;;;;;5.13;4.23;;;;;;;;;;4992160;28;20191;-68
2023/03/12 05:08:46;;;;;;;8.27;4.30;;;;;;;;;;4992291;28;20179;-70
2023/03/12 05:11:11;;;;;;;7.87;4.43;;;;;;;;;;4992657;28;20568;-70
2023/03/12 05:13:37;;;;;;;7.70;4.33;;;;;;;;;;4992426;28;20184;-68
2023/03/12 05:16:02;;;;;;;6.20;4.13;;;;;;;;;;4992266;28;20227;-70
2023/03/12 05:18:27;;;;;;;6.13;4.83;;;;;;;;;;4991707;28;20333;-69
2023/03/12 05:21:06;;;;;;;6.67;4.33;;;;;;;;;;4992533;28;20777;-68
2023/03/12 05:23:32;;;;;;;7.57;4.67;;;;;;;;;;4987551;28;20750;-68
2023/03/12 05:25:57;;;;;;;4.60;3.70;;;;;;;;;;4990262;28;20203;-68
2023/03/12 05:28:26;;;;;;;6.13;4.30;;;;;;;;;;4991432;28;20183;-68
2023/03/12 05:30:52;;;;;;;7.27;3.97;;;;;;;;;;4992881;28;20180;-68
2023/03/12 05:33:17;;;;;;;5.97;4.43;;;;;;;;;;4992240;28;20374;-68
2023/03/12 05:35:42;;;;;;;6.60;3.90;;;;;;;;;;4991885;28;20859;-68
2023/03/12 05:38:08;;;;;;;5.90;4.40;;;;;;;;;;4992398;28;20703;-68
2023/03/12 05:40:33;;;;;;;5.17;4.07;;;;;;;;;;4992099;28;20725;-68
2023/03/12 05:42:58;;;;;;;6.60;4.87;;;;;;;;;;4991898;28;20301;-68
2023/03/12 05:45:23;;;;;;;9.73;4.17;;;;;;;;;;4992114;28;20205;-68
2023/03/12 05:47:48;;;;;;;8.10;4.77;;;;;;;;;;4994200;28;20183;-68
2023/03/12 05:50:15;;;;;;;7.20;4.33;;;;;;;;;;4992507;28;20638;-68
2023/03/12 05:52:40;;;;;;;6.27;4.23;;;;;;;;;;4996179;28;20211;-68
2023/03/12 05:55:06;;;;;;;7.43;4.43;;;;;;;;;;5000559;28;20207;-68
2023/03/12 05:57:31;;;;;;;5.10;4.20;;;;;;;;;;4999061;28;20179;-68
2023/03/12 05:59:56;;;;;;;9.40;4.43;;;;;;;;;;4992354;28;20571;-68
2023/03/12 06:02:21;;;;;;;9.83;5.57;;;;;;;;;;4990858;28;20191;-68
2023/03/12 06:04:46;;;;;;;8.30;5.30;;;;;;;;;;4980417;28;20208;-67
2023/03/12 06:07:12;;;;;;;7.63;4.40;;;;;;;;;;4989286;28;20633;-68
2023/03/12 06:09:37;;;;;;;9.80;5.60;;;;;;;;;;4996696;28;20180;-68
2023/03/12 06:12:02;;;;;;;9.40;4.67;;;;;;;;;;4996180;28;20171;-68
2023/03/12 06:14:27;;;;;;;8.27;5.87;;;;;;;;;;5002961;28;20257;-68
2023/03/12 06:16:52;;;;;;;9.47;5.07;;;;;;;;;;4999780;28;20178;-68
2023/03/12 06:19:18;;;;;;;9.00;5.33;;;;;;;;;;5002438;28;20214;-68
2023/03/12 06:21:43;;;;;;;11.00;5.80;;;;;;;;;;4995183;28;20191;-69
2023/03/12 06:24:09;;;;;;;8.07;5.33;;;;;;;;;;4991377;28;20635;-68
2023/03/12 06:26:34;;;;;;;11.20;5.40;;;;;;;;;;4990599;28;20179;-68
2023/03/12 06:28:59;;;;;;;8.23;6.37;;;;;;;;;;4991482;28;20546;-68
2023/03/12 06:31:24;;;;;;;7.47;5.77;;;;;;;;;;4991985;28;20803;-68
2023/03/12 06:33:50;;;;;;;7.97;5.07;;;;;;;;;;4988927;28;20183;-68
2023/03/12 06:36:15;;;;;;;7.33;5.53;;;;;;;;;;4990933;28;20188;-68
2023/03/12 06:38:41;;;;;;;10.73;5.50;;;;;;;;;;4989924;28;20194;-68
2023/03/12 06:41:08;;;;;;;10.17;5.80;;;;;;;;;;4992207;28;20190;-68
2023/03/12 06:43:34;;;;;;;7.57;5.23;;;;;;;;;;4991127;28;20338;-68
2023/03/12 06:46:00;;;;;;;8.00;5.73;;;;;;;;;;4991281;28;20688;-68
2023/03/12 06:48:27;;;;;;;7.47;5.27;;;;;;;;;;4991003;28;20180;-68
2023/03/12 06:50:52;;;;;;;13.43;6.53;;;;;;;;;;4990721;28;20551;-68
2023/03/12 06:53:18;;;;;;;11.07;6.43;;;;;;;;;;4980438;28;20184;-67
2023/03/12 06:55:43;;;;;;;9.67;6.27;;;;;;;;;;4981334;28;20231;-68
2023/03/12 06:58:08;;;;;;;14.03;6.60;;;;;;;;;;4994582;28;20179;-68
2023/03/12 07:00:34;;;;;;;8.73;7.53;;;;;;;;;;4992066;28;20185;-68
2023/03/12 07:03:00;;;;;;;17.57;7.63;;;;;;;;;;4987133;28;20210;-68
2023/03/12 07:05:25;;;;;;;11.40;7.10;;;;;;;;;;4996517;28;20206;-69
2023/03/12 07:07:50;;;;;;;10.67;7.37;;;;;;;;;;4999358;28;20187;-69
2023/03/12 07:10:16;;;;;;;10.73;6.77;;;;;;;;;;4999976;28;20362;-68
2023/03/12 07:12:42;;;;;;;12.80;7.37;;;;;;;;;;5010429;28;20179;-68
2023/03/12 07:15:07;;;;;;;11.07;7.67;;;;;;;;;;4996816;28;20215;-69
2023/03/12 07:17:32;;;;;;;9.30;7.03;;;;;;;;;;4994096;28;20176;-68
2023/03/12 07:19:58;;;;;;;10.80;7.63;;;;;;;;;;5001816;28;20553;-68
2023/03/12 07:22:23;;;;;;;13.10;7.73;;;;;;;;;;4994290;28;20179;-69
2023/03/12 07:24:50;;;;;;;9.30;6.67;;;;;;;;;;4993514;28;20243;-69
2023/03/12 07:27:15;;;;;;;10.03;7.13;;;;;;;;;;4994441;28;20258;-68
2023/03/12 07:29:40;;;;;;;9.40;7.23;;;;;;;;;;4995025;28;20261;-68
2023/03/12 07:32:05;;;;;;;10.27;7.50;;;;;;;;;;4998278;28;20761;-68
2023/03/12 07:34:30;;;;;;;9.07;7.50;;;;;;;;;;4996132;28;20210;-68
2023/03/12 07:36:56;;;;;;;11.30;7.67;;;;;;;;;;4993775;28;20284;-68
2023/03/12 07:39:21;;;;;;;9.63;8.10;;;;;;;;;;4994653;28;20233;-68
2023/03/12 07:41:46;;;;;;;13.17;8.43;;;;;;;;;;4994321;28;20171;-69
2023/03/12 07:44:11;;;;;;;12.70;9.03;;;;;;;;;;4992985;28;20579;-68
2023/03/12 07:46:37;;;;;;;11.30;8.10;;;;;;;;;;4994618;28;20638;-68
2023/03/12 07:49:03;;;;;;;12.23;8.33;;;;;;;;;;4993341;28;20183;-68
2023/03/12 07:51:28;;;;;;;12.50;8.97;;;;;;;;;;4994502;28;20203;-69
2023/03/12 07:53:53;;;;;;;12.33;9.20;;;;;;;;;;4993539;28;21377;-69
2023/03/12 07:56:19;;;;;;;13.03;9.10;;;;;;;;;;4993341;28;20242;-69
2023/03/12 07:58:44;;;;;;;16.30;9.07;;;;;;;;;;4994118;28;20180;-68
2023/03/12 08:01:09;;;;;;;13.87;9.07;;;;;;;;;;4990382;28;20182;-68
2023/03/12 08:03:34;;;;;;;13.50;8.97;;;;;;;;;;4983418;28;20219;-68
2023/03/12 08:06:01;;;;;;;11.43;9.30;;;;;;;;;;4993761;28;20191;-69
2023/03/12 08:08:27;;;;;;;15.30;9.63;;;;;;;;;;4991235;28;20263;-69
2023/03/12 08:10:53;;;;;;;12.73;8.73;;;;;;;;;;4994143;28;20286;-69
2023/03/12 08:13:18;;;;;;;14.80;8.77;;;;;;;;;;4995444;28;20183;-69
2023/03/12 08:15:43;;;;;;;13.03;8.90;;;;;;;;;;4994608;28;20242;-68
2023/03/12 08:18:08;;;;;;;14.13;9.87;;;;;;;;;;4991337;28;20241;-68
2023/03/12 08:20:34;;;;;;;16.03;9.67;;;;;;;;;;4992364;28;20230;-68
2023/03/12 08:22:59;;;;;;;13.93;9.50;;;;;;;;;;4993787;28;20286;-68
2023/03/12 08:25:24;;;;;;;14.60;9.60;;;;;;;;;;4996837;28;20203;-69
2023/03/12 08:27:49;;;;;;;15.20;9.80;;;;;;;;;;4992080;28;20176;-69
2023/03/12 08:30:15;;;;;;;14.90;9.73;;;;;;;;;;4992442;28;20184;-69
2023/03/12 08:32:40;;;;;;;17.07;9.67;;;;;;;;;;4993132;28;20175;-69
2023/03/12 08:35:05;;;;;;;16.47;9.70;;;;;;;;;;4991778;28;20608;-69
2023/03/12 08:37:31;;;;;;;16.63;10.83;;;;;;;;;;4993523;28;20179;-69
2023/03/12 08:39:56;;;;;;;14.77;10.40;;;;;;;;;;4992147;28;20180;-69
2023/03/12 08:42:22;;;;;;;18.07;11.07;;;;;;;;;;4993869;28;20168;-69
2023/03/12 08:44:47;;;;;;;21.73;11.30;;;;;;;;;;4992870;28;20270;-69
2023/03/12 08:47:12;;;;;;;16.40;10.67;;;;;;;;;;4992491;28;20168;-69
2023/03/12 08:49:37;;;;;;;17.17;11.47;;;;;;;;;;4993420;28;20175;-68
2023/03/12 08:52:03;;;;;;;19.80;13.10;;;;;;;;;;4993672;28;20218;-68
2023/03/12 08:54:28;;;;;;;20.50;11.90;;;;;;;;;;4991100;28;20223;-68
2023/03/12 08:56:53;;;;;;;17.73;12.93;;;;;;;;;;4991828;28;20242;-69
2023/03/12 08:59:19;;;;;;;18.23;12.60;;;;;;;;;;4991564;28;20183;-69
2023/03/12 09:01:45;;;;;;;19.57;13.47;;;;;;;;;;4991669;28;20649;-69
2023/03/12 09:04:10;;;;;;;21.47;14.00;;;;;;;;;;4986302;28;20694;-69
2023/03/12 09:06:35;;;;;;;21.27;13.43;;;;;;;;;;4989492;28;20887;-69
2023/03/12 09:09:03;;;;;;;23.30;14.43;;;;;;;;;;5007678;28;20179;-69
2023/03/12 09:11:29;;;;;;;26.60;15.57;;;;;;;;;;4996450;28;20295;-68
2023/03/12 09:13:54;;;;;;;21.10;14.00;;;;;;;;;;4996171;28;20271;-69
2023/03/12 09:16:20;;;;;;;26.83;15.57;;;;;;;;;;4995319;28;20186;-69
2023/03/12 09:18:45;;;;;;;21.87;14.03;;;;;;;;;;4993103;28;20180;-69
2023/03/12 09:21:10;;;;;;;22.37;14.87;;;;;;;;;;4988428;28;20178;-69
2023/03/12 09:23:35;;;;;;;31.70;16.67;;;;;;;;;;4992318;28;20319;-69
2023/03/12 09:26:01;;;;;;;27.23;16.23;;;;;;;;;;4992673;28;20187;-69
2023/03/12 09:28:27;;;;;;;25.10;15.97;;;;;;;;;;4992947;28;20286;-69
2023/03/12 09:30:52;;;;;;;29.00;17.10;;;;;;;;;;4991665;28;20657;-68
2023/03/12 09:33:17;;;;;;;26.23;17.03;;;;;;;;;;4997530;28;20191;-69
2023/03/12 09:35:43;;;;;;;27.17;16.87;;;;;;;;;;4995646;28;20290;-69
2023/03/12 09:38:11;;;;;;;24.80;16.37;;;;;;;;;;4988421;28;20218;-71
2023/03/12 09:40:38;;;;;;;24.73;15.87;;;;;;;;;;4992555;28;20565;-68
2023/03/12 09:43:06;;;;;;;24.27;16.33;;;;;;;;;;4992459;28;20608;-71
2023/03/12 09:45:35;;;;;;;28.03;16.40;;;;;;;;;;4991978;28;20355;-69
2023/03/12 09:48:01;;;;;;;22.10;14.67;;;;;;;;;;4991398;28;20179;-68
2023/03/12 09:50:32;;;;;;;22.70;15.73;;;;;;;;;;4992653;28;20592;-69
2023/03/12 09:52:57;;;;;;;21.13;14.07;;;;;;;;;;4992480;28;20221;-69
2023/03/12 09:55:23;;;;;;;17.77;13.40;;;;;;;;;;4989577;28;20297;-68
2023/03/12 09:57:50;;;;;;;20.30;13.83;;;;;;;;;;4992275;28;20175;-68
2023/03/12 10:00:20;;;;;;;21.27;13.37;;;;;;;;;;4992285;28;20176;-68
2023/03/12 10:03:04;;;;;;;22.60;13.10;;;;;;;;;;4992417;28;20172;-68
2023/03/12 10:05:52;;;;;;;19.30;11.93;;;;;;;;;;4976689;28;20228;-68
2023/03/12 10:08:26;;;;;;;18.03;11.53;;;;;;;;;;4990080;28;20203;-69
2023/03/12 10:10:54;;;;;;;16.10;11.00;;;;;;;;;;4988706;28;20709;-69
2023/03/12 10:13:37;;;;;;;17.93;11.67;;;;;;;;;;4989549;28;20175;-69
2023/03/12 10:16:22;;;;;;;16.60;10.83;;;;;;;;;;4991486;28;20318;-70
2023/03/12 10:19:06;;;;;;;15.53;11.30;;;;;;;;;;4991893;28;20183;-69
2023/03/12 10:21:40;;;;;;;20.67;12.13;;;;;;;;;;4982608;28;20211;-69
2023/03/12 10:24:08;;;;;;;20.53;11.57;;;;;;;;;;4988484;28;20211;-69
2023/03/12 10:26:36;;;;;;;15.37;11.40;;;;;;;;;;4991586;28;20168;-68
2023/03/12 10:29:14;;;;;;;21.30;11.03;;;;;;;;;;4992207;28;20563;-69
2023/03/12 10:31:46;;;;;;;24.10;13.70;;;;;;;;;;4990498;28;20172;-69
2023/03/12 10:34:15;;;;;;;22.27;12.27;;;;;;;;;;4985439;28;20246;-69
2023/03/12 10:36:41;;;;;;;22.87;12.30;;;;;;;;;;4992013;28;20692;-69
2023/03/12 10:39:12;;;;;;;23.00;11.80;;;;;;;;;;4979019;28;20180;-69
2023/03/12 10:41:37;;;;;;;21.70;10.30;;;;;;;;;;4995510;28;20195;-69
2023/03/12 10:44:06;;;;;;;19.33;9.77;;;;;;;;;;4999520;28;20231;-68
2023/03/12 10:46:37;;;;;;;21.90;9.93;;;;;;;;;;5000965;28;20183;-68
2023/03/12 10:49:21;;;;;;;22.50;10.13;;;;;;;;;;4987388;28;20600;-68
2023/03/12 10:52:04;;;;;;;19.90;9.50;;;;;;;;;;4990740;28;20539;-69
2023/03/12 10:54:31;;;;;;;17.73;8.73;;;;;;;;;;4991955;28;20576;-68
2023/03/12 10:56:57;;;;;;;26.20;8.07;;;;;;;;;;4989631;28;20710;-68
2023/03/12 10:59:25;;;;;;;20.10;7.40;;;;;;;;;;4994962;28;20258;-68
2023/03/12 11:01:51;;;;;;;16.77;7.57;;;;;;;;;;5006933;23;20260;-75
2023/03/12 11:04:16;;;;;;;27.53;8.37;;;;;;;;;;5009052;28;20218;-75
2023/03/12 11:06:42;;;;;;;26.57;7.43;;;;;;;;;;5018940;28;20194;-75
2023/03/12 11:09:17;;;;;;;16.63;6.73;;;;;;;;;;5012170;28;20269;-75
2023/03/12 11:11:44;;;;;;;24.23;7.70;;;;;;;;;;5013209;28;20206;-75
2023/03/12 11:14:09;;;;;;;25.37;7.63;;;;;;;;;;4999556;28;20180;-75
2023/03/12 11:16:34;;;;;;;18.23;6.67;;;;;;;;;;5010491;28;20175;-75
2023/03/12 11:19:04;;;;;;;23.87;7.67;;;;;;;;;;5009005;28;20186;-75
2023/03/12 11:21:35;;;;;;;25.03;7.27;;;;;;;;;;5012929;28;20187;-75
2023/03/12 11:24:06;;;;;;;20.93;6.13;;;;;;;;;;5011487;28;20203;-75
2023/03/12 11:26:36;;;;;;;18.37;6.33;;;;;;;;;;5015867;28;20169;-75
2023/03/12 11:29:05;;;;;;;23.80;7.70;;;;;;;;;;5011648;28;20186;-75
2023/03/12 11:31:33;;;;;;;15.97;5.67;;;;;;;;;;5016299;28;22580;-75
2023/03/12 11:34:01;;;;;;;16.47;6.23;;;;;;;;;;5012628;28;20262;-74
2023/03/12 11:36:26;;;;;;;22.20;6.37;;;;;;;;;;5012923;28;20190;-75
2023/03/12 11:39:21;;;;;;;27.43;7.90;;;;;;;;;;5003443;28;20274;-75
2023/03/12 11:41:56;;;;;;;23.50;6.47;;;;;;;;;;4987637;28;20211;-75
2023/03/12 11:44:42;;;;;;;24.33;6.23;;;;;;;;;;5006945;28;20298;-75
2023/03/12 11:47:07;;;;;;;18.23;7.53;;;;;;;;;;5004132;28;20545;-75
2023/03/12 11:49:44;;;;;;;19.60;6.10;;;;;;;;;;5001036;28;20192;-76
2023/03/12 11:52:27;;;;;;;20.40;7.37;;;;;;;;;;5005840;28;20684;-76
2023/03/12 11:55:11;;;;;;;22.83;6.67;;;;;;;;;;5006267;28;20278;-75
2023/03/12 11:57:45;;;;;;;23.13;6.17;;;;;;;;;;5006434;28;20329;-76
2023/03/12 12:00:13;;;;;;;19.70;6.13;;;;;;;;;;5006792;28;20657;-75
2023/03/12 12:02:46;;;;;;;19.27;6.67;;;;;;;;;;5007125;28;20218;-76
2023/03/12 12:05:11;;;;;;;22.63;6.87;;;;;;;;;;5009451;28;20616;-76
2023/03/12 12:07:37;;;;;;;24.73;6.83;;;;;;;;;;5014314;28;20175;-75
2023/03/12 12:10:08;;;;;;;18.40;6.90;;;;;;;;;;5012502;28;20207;-76
2023/03/12 12:12:33;;;;;;;25.67;6.27;;;;;;;;;;5006361;28;20201;-76
2023/03/12 12:15:04;;;;;;;22.40;6.30;;;;;;;;;;5009913;28;20562;-75
2023/03/12 12:17:45;;;;;;;19.97;5.07;;;;;;;;;;5005583;28;20681;-75
2023/03/12 12:20:24;;;;;;;21.73;4.77;;;;;;;;;;5011137;28;20192;-75
2023/03/12 12:22:55;;;;;;;20.50;4.90;;;;;;;;;;5005018;28;20589;-75
2023/03/12 12:25:24;;;;;;;20.47;6.03;;;;;;;;;;5005827;28;20175;-75
2023/03/12 12:28:02;;;;;;;23.13;6.53;;;;;;;;;;5002452;28;20214;-75
2023/03/12 12:30:47;;;;;;;26.63;5.80;;;;;;;;;;5006097;28;20575;-75
2023/03/12 12:33:13;;;;;;;22.37;5.50;;;;;;;;;;5005466;28;20197;-75
2023/03/12 12:35:39;;;;;;;24.33;5.85;;;;;;;;;;5008775;28;20409;-75
2023/03/12 12:38:17;;;;;;;29.67;6.70;;;;;;;;;;5007577;28;20526;-75
2023/03/12 12:40:48;;;;;;;26.50;5.77;;;;;;;;;;5007309;28;20597;-76
2023/03/12 12:43:22;;;;;;;30.00;7.65;;;;;;;;;;5008247;28;20211;-75
2023/03/12 12:45:49;;;;;;;18.45;5.40;;;;;;;;;;5004705;28;20214;-75
2023/03/12 12:48:17;;;;;;;23.30;6.68;;;;;;;;;;5004417;28;20172;-74
2023/03/12 12:50:43;;;;;;;25.20;7.03;;;;;;;;;;5018562;28;20186;-75
2023/03/12 12:53:14;;;;;;;24.17;5.73;;;;;;;;;;5012993;28;20203;-75
2023/03/12 12:55:43;;;;;;;22.65;6.70;;;;;;;;;;5008563;28;20271;-75
2023/03/12 12:58:16;;;;;;;23.88;6.57;;;;;;;;;;5007602;28;20187;-76
2023/03/12 13:00:53;;;;;;;20.85;6.90;;;;;;;;;;5004903;28;20191;-76
2023/03/12 13:03:23;;;;;;;27.52;7.15;;;;;;;;;;5006653;28;20219;-75
2023/03/12 13:05:51;;;;;;;24.98;7.15;;;;;;;;;;5005866;28;20202;-76
2023/03/12 13:08:34;;;;;;;25.63;5.60;;;;;;;;;;5007349;28;20282;-75
2023/03/12 13:11:26;;;;;;;17.67;5.05;;;;;;;;;;5018687;28;20241;-75
2023/03/12 13:14:03;;;;;;;21.95;6.82;;;;;;;;;;4994125;28;20213;-76
2023/03/12 13:16:33;;;;;;;28.02;6.60;;;;;;;;;;5013951;28;20182;-75
2023/03/12 13:19:00;;;;;;;24.95;7.30;;;;;;;;;;5002328;28;20240;-75
2023/03/12 13:21:29;;;;;;;22.52;6.38;;;;;;;;;;5002634;28;20246;-75
2023/03/12 13:24:06;;;;;;;27.17;7.13;;;;;;;;;;5001451;28;20452;-75
2023/03/12 13:26:49;;;;;;;27.20;5.35;;;;;;;;;;5000894;28;20237;-75
2023/03/12 13:29:19;;;;;;;22.55;5.55;;;;;;;;;;5009010;28;20199;-75
2023/03/12 13:31:44;;;;;;;26.30;5.50;;;;;;;;;;5003819;28;20215;-75
2023/03/12 13:34:16;;;;;;;31.48;8.18;;;;;;;;;;5004198;28;20626;-75
2023/03/12 13:36:42;;;;;;;24.17;7.18;;;;;;;;;;5010228;28;20193;-75
2023/03/12 13:39:14;;;;;;;22.52;4.68;;;;;;;;;;5009780;28;20248;-74
2023/03/12 13:41:39;;;;;;;19.50;4.80;;;;;;;;;;5008754;28;20204;-74
2023/03/12 13:44:22;;;;;;;26.27;5.50;;;;;;;;;;5009438;28;20286;-74
2023/03/12 13:46:55;;;;;;;19.90;5.32;;;;;;;;;;5011819;28;20179;-75
2023/03/12 13:49:21;;;;;;;20.80;5.68;;;;;;;;;;5006598;28;20215;-75
2023/03/12 13:51:54;;;;;;;23.67;4.85;;;;;;;;;;5004621;28;20215;-75
2023/03/12 13:54:22;;;;;;;22.73;5.00;;;;;;;;;;5011758;28;20175;-76
2023/03/12 13:56:56;;;;;;;21.65;4.70;;;;;;;;;;5011955;28;20179;-76
2023/03/12 13:59:22;;;;;;;24.08;5.55;;;;;;;;;;5006615;28;20170;-74
2023/03/12 14:01:49;;;;;;;32.15;6.70;;;;;;;;;;5011724;28;20213;-73
2023/03/12 14:04:19;;;;;;;17.75;4.53;;;;;;;;;;5014024;28;20244;-73
2023/03/12 14:06:59;;;;;;;20.95;6.45;;;;;;;;;;5004481;28;20723;-73
2023/03/12 14:09:43;;;;;;;18.55;3.63;;;;;;;;;;5014929;28;20178;-73
2023/03/12 14:12:28;;;;;;;18.52;4.72;;;;;;;;;;5008740;28;20206;-73
2023/03/12 14:14:59;;;;;;;16.92;4.88;;;;;;;;;;5004957;28;20240;-73
2023/03/12 14:17:26;;;;;;;14.80;5.05;;;;;;;;;;5000773;28;20230;-73
2023/03/12 14:20:04;;;;;;;20.40;6.07;;;;;;;;;;5002151;28;20529;-73
2023/03/12 14:22:31;;;;;;;19.60;5.95;;;;;;;;;;4997673;28;20229;-74
2023/03/12 14:25:00;;;;;;;17.02;4.78;;;;;;;;;;5009427;28;20758;-73
2023/03/12 14:27:28;;;;;;;19.92;4.88;;;;;;;;;;5003293;28;20705;-74
2023/03/12 14:29:57;;;;;;;18.35;5.20;;;;;;;;;;5006266;28;20183;-76
2023/03/12 14:32:25;;;;;;;19.42;5.03;;;;;;;;;;5002223;28;20196;-75
2023/03/12 14:34:57;;;;;;;25.00;5.38;;;;;;;;;;5004119;28;20191;-75
2023/03/12 14:37:30;;;;;;;22.58;5.88;;;;;;;;;;5006337;28;20188;-75